sensor_id;sensor_type;location;lat;lon;timestamp;pressure;altitude;pressure_sealevel;temperature;humidity
57594;BME280;43423;46.510;6.686;2022-12-18T00:01:49;97242.50;;;-0.90;84.96
57594;BME280;43423;46.510;6.686;2022-12-18T00:04:20;97249.84;;;-0.83;85.56
57594;BME280;43423;46.510;6.686;2022-12-18T00:06:46;97262.97;;;-0.78;84.52
57594;BME280;43423;46.510;6.686;2022-12-18T00:09:12;97247.13;;;-0.80;85.00
57594;BME280;43423;46.510;6.686;2022-12-18T00:11:37;97257.94;;;-0.83;84.94
57594;BME280;43423;46.510;6.686;2022-12-18T00:14:03;97257.19;;;-0.84;85.01
57594;BME280;43423;46.510;6.686;2022-12-18T00:16:29;97253.72;;;-0.70;84.68
57594;BME280;43423;46.510;6.686;2022-12-18T00:19:00;97257.59;;;-0.78;83.93
57594;BME280;43423;46.510;6.686;2022-12-18T00:21:27;97259.53;;;-0.61;84.00
57594;BME280;43423;46.510;6.686;2022-12-18T00:23:55;97268.00;;;-0.45;83.85
57594;BME280;43423;46.510;6.686;2022-12-18T00:26:26;97264.94;;;-0.54;83.57
57594;BME280;43423;46.510;6.686;2022-12-18T00:28:53;97261.84;;;-0.45;83.97
57594;BME280;43423;46.510;6.686;2022-12-18T00:31:23;97258.34;;;-0.57;84.28
57594;BME280;43423;46.510;6.686;2022-12-18T00:33:49;97263.75;;;-0.49;84.12
57594;BME280;43423;46.510;6.686;2022-12-18T00:36:18;97259.91;;;-0.48;83.74
57594;BME280;43423;46.510;6.686;2022-12-18T00:38:45;97255.66;;;-0.49;83.66
57594;BME280;43423;46.510;6.686;2022-12-18T00:41:12;97261.47;;;-0.37;83.42
57594;BME280;43423;46.510;6.686;2022-12-18T00:43:38;97272.63;;;-0.35;83.52
57594;BME280;43423;46.510;6.686;2022-12-18T00:46:05;97267.22;;;-0.49;83.30
57594;BME280;43423;46.510;6.686;2022-12-18T00:48:31;97266.44;;;-0.64;84.43
57594;BME280;43423;46.510;6.686;2022-12-18T00:50:56;97261.44;;;-0.58;83.91
57594;BME280;43423;46.510;6.686;2022-12-18T00:53:22;97263.75;;;-0.49;84.34
57594;BME280;43423;46.510;6.686;2022-12-18T00:55:48;97270.31;;;-0.40;83.39
57594;BME280;43423;46.510;6.686;2022-12-18T00:58:15;97259.91;;;-0.52;83.21
57594;BME280;43423;46.510;6.686;2022-12-18T01:00:42;97288.84;;;-0.28;83.93
57594;BME280;43423;46.510;6.686;2022-12-18T01:03:12;97286.53;;;-0.33;83.51
57594;BME280;43423;46.510;6.686;2022-12-18T01:05:40;97295.41;;;-0.32;83.86
57594;BME280;43423;46.510;6.686;2022-12-18T01:08:05;97284.22;;;-0.34;83.94
57594;BME280;43423;46.510;6.686;2022-12-18T01:10:31;97289.22;;;-0.33;83.96
57594;BME280;43423;46.510;6.686;2022-12-18T01:12:56;97294.66;;;-0.29;84.58
57594;BME280;43423;46.510;6.686;2022-12-18T01:15:22;97302.75;;;-0.15;83.86
57594;BME280;43423;46.510;6.686;2022-12-18T01:17:48;97291.94;;;-0.08;84.48
57594;BME280;43423;46.510;6.686;2022-12-18T01:20:13;97301.59;;;0.04;83.83
57594;BME280;43423;46.510;6.686;2022-12-18T01:22:39;97295.38;;;0.07;83.47
57594;BME280;43423;46.510;6.686;2022-12-18T01:25:05;97299.63;;;0.15;83.81
57594;BME280;43423;46.510;6.686;2022-12-18T01:27:31;97284.22;;;0.09;84.34
57594;BME280;43423;46.510;6.686;2022-12-18T01:29:58;97293.47;;;0.18;84.44
57594;BME280;43423;46.510;6.686;2022-12-18T01:32:23;97320.09;;;0.23;84.77
57594;BME280;43423;46.510;6.686;2022-12-18T01:34:49;97317.41;;;0.20;83.68
57594;BME280;43423;46.510;6.686;2022-12-18T01:37:14;97334.00;;;0.29;83.94
57594;BME280;43423;46.510;6.686;2022-12-18T01:39:40;97330.13;;;0.30;83.98
57594;BME280;43423;46.510;6.686;2022-12-18T01:42:13;97339.00;;;0.31;83.97
57594;BME280;43423;46.510;6.686;2022-12-18T01:45:22;97344.44;;;0.34;84.14
57594;BME280;43423;46.510;6.686;2022-12-18T01:50:12;97344.03;;;0.36;83.16
57594;BME280;43423;46.510;6.686;2022-12-18T01:52:40;97343.25;;;0.46;82.19
57594;BME280;43423;46.510;6.686;2022-12-18T01:55:07;97345.94;;;0.49;82.05
57594;BME280;43423;46.510;6.686;2022-12-18T01:57:34;97343.25;;;0.46;82.16
57594;BME280;43423;46.510;6.686;2022-12-18T02:00:03;97354.84;;;0.50;81.64
57594;BME280;43423;46.510;6.686;2022-12-18T02:02:30;97349.03;;;0.51;81.14
57594;BME280;43423;46.510;6.686;2022-12-18T02:04:56;97349.00;;;0.55;81.71
57594;BME280;43423;46.510;6.686;2022-12-18T02:07:44;97357.16;;;0.48;81.43
57594;BME280;43423;46.510;6.686;2022-12-18T02:10:41;97362.16;;;0.53;81.08
57594;BME280;43423;46.510;6.686;2022-12-18T02:13:20;97373.75;;;0.53;80.21
57594;BME280;43423;46.510;6.686;2022-12-18T02:19:12;97370.66;;;0.55;79.91
57594;BME280;43423;46.510;6.686;2022-12-18T02:21:54;97376.88;;;0.52;80.57
57594;BME280;43423;46.510;6.686;2022-12-18T02:26:58;97373.38;;;0.59;80.28
57594;BME280;43423;46.510;6.686;2022-12-18T02:29:39;97371.81;;;0.61;80.59
57594;BME280;43423;46.510;6.686;2022-12-18T02:32:10;97369.13;;;0.58;81.21
57594;BME280;43423;46.510;6.686;2022-12-18T02:34:38;97369.09;;;0.61;80.67
57594;BME280;43423;46.510;6.686;2022-12-18T02:37:07;97369.47;;;0.63;79.87
57594;BME280;43423;46.510;6.686;2022-12-18T02:39:36;97376.47;;;0.61;80.32
57594;BME280;43423;46.510;6.686;2022-12-18T02:42:03;97373.78;;;0.57;80.89
57594;BME280;43423;46.510;6.686;2022-12-18T02:44:50;97373.78;;;0.50;79.76
57594;BME280;43423;46.510;6.686;2022-12-18T02:47:18;97382.28;;;0.52;80.48
57594;BME280;43423;46.510;6.686;2022-12-18T02:52:44;97380.38;;;0.42;80.99
57594;BME280;43423;46.510;6.686;2022-12-18T02:58:05;97378.41;;;0.39;81.04
57594;BME280;43423;46.510;6.686;2022-12-18T03:00:45;97386.13;;;0.47;80.75
57594;BME280;43423;46.510;6.686;2022-12-18T03:03:25;97373.41;;;0.44;81.01
57594;BME280;43423;46.510;6.686;2022-12-18T03:06:01;97369.94;;;0.33;81.75
57594;BME280;43423;46.510;6.686;2022-12-18T03:08:33;97383.06;;;0.42;81.08
57594;BME280;43423;46.510;6.686;2022-12-18T03:11:10;97387.34;;;0.32;81.00
57594;BME280;43423;46.510;6.686;2022-12-18T03:13:39;97389.28;;;0.24;82.33
57594;BME280;43423;46.510;6.686;2022-12-18T03:16:09;97391.97;;;0.24;82.01
57594;BME280;43423;46.510;6.686;2022-12-18T03:18:46;97392.34;;;0.19;81.86
57594;BME280;43423;46.510;6.686;2022-12-18T03:21:14;97386.56;;;0.17;81.91
57594;BME280;43423;46.510;6.686;2022-12-18T03:23:44;97390.03;;;0.14;82.21
57594;BME280;43423;46.510;6.686;2022-12-18T03:26:16;97391.19;;;0.13;82.27
57594;BME280;43423;46.510;6.686;2022-12-18T03:28:47;97386.94;;;0.12;82.23
57594;BME280;43423;46.510;6.686;2022-12-18T03:31:15;97383.50;;;0.08;82.74
57594;BME280;43423;46.510;6.686;2022-12-18T03:33:54;97390.44;;;0.09;82.34
57594;BME280;43423;46.510;6.686;2022-12-18T03:36:20;97388.91;;;0.08;82.26
57594;BME280;43423;46.510;6.686;2022-12-18T03:38:46;97386.19;;;0.08;82.16
57594;BME280;43423;46.510;6.686;2022-12-18T03:41:17;97383.88;;;0.03;82.22
57594;BME280;43423;46.510;6.686;2022-12-18T03:44:20;97386.19;;;0.01;83.04
57594;BME280;43423;46.510;6.686;2022-12-18T03:52:23;97386.16;;;-0.10;83.83
57594;BME280;43423;46.510;6.686;2022-12-18T03:54:52;97390.03;;;-0.07;83.44
57594;BME280;43423;46.510;6.686;2022-12-18T03:57:21;97374.97;;;-0.19;83.67
57594;BME280;43423;46.510;6.686;2022-12-18T03:59:52;97386.94;;;-0.16;83.58
57594;BME280;43423;46.510;6.686;2022-12-18T04:02:20;97387.72;;;-0.23;84.04
57594;BME280;43423;46.510;6.686;2022-12-18T04:04:50;97383.03;;;-0.33;83.92
57594;BME280;43423;46.510;6.686;2022-12-18T04:07:18;97383.81;;;-0.33;83.22
57594;BME280;43423;46.510;6.686;2022-12-18T04:09:45;97390.00;;;-0.25;82.72
57594;BME280;43423;46.510;6.686;2022-12-18T04:12:11;97387.69;;;-0.19;82.09
57594;BME280;43423;46.510;6.686;2022-12-18T04:14:36;97392.75;;;-0.14;82.19
57594;BME280;43423;46.510;6.686;2022-12-18T04:17:02;97392.72;;;-0.29;82.65
57594;BME280;43423;46.510;6.686;2022-12-18T04:19:28;97388.09;;;-0.32;82.52
57594;BME280;43423;46.510;6.686;2022-12-18T04:21:54;97395.41;;;-0.36;83.04
57594;BME280;43423;46.510;6.686;2022-12-18T04:24:19;97387.66;;;-0.44;83.49
57594;BME280;43423;46.510;6.686;2022-12-18T04:26:45;97396.16;;;-0.46;83.32
57594;BME280;43423;46.510;6.686;2022-12-18T04:29:11;97393.03;;;-0.48;83.71
57594;BME280;43423;46.510;6.686;2022-12-18T04:31:37;97392.31;;;-0.45;83.00
57594;BME280;43423;46.510;6.686;2022-12-18T04:34:03;97402.34;;;-0.45;82.95
57594;BME280;43423;46.510;6.686;2022-12-18T04:36:28;97397.69;;;-0.52;83.45
57594;BME280;43423;46.510;6.686;2022-12-18T04:38:54;97398.47;;;-0.51;84.02
57594;BME280;43423;46.510;6.686;2022-12-18T04:41:20;97401.94;;;-0.54;84.18
57594;BME280;43423;46.510;6.686;2022-12-18T04:43:45;97406.16;;;-0.57;84.41
57594;BME280;43423;46.510;6.686;2022-12-18T04:46:11;97408.47;;;-0.59;84.68
57594;BME280;43423;46.510;6.686;2022-12-18T04:48:37;97415.44;;;-0.54;84.53
57594;BME280;43423;46.510;6.686;2022-12-18T04:51:04;97399.97;;;-0.58;84.72
57594;BME280;43423;46.510;6.686;2022-12-18T04:53:30;97407.72;;;-0.49;85.36
57594;BME280;43423;46.510;6.686;2022-12-18T04:58:29;97413.16;;;-0.38;85.50
57594;BME280;43423;46.510;6.686;2022-12-18T05:00:55;97419.34;;;-0.38;85.06
57594;BME280;43423;46.510;6.686;2022-12-18T05:03:20;97410.84;;;-0.33;84.75
57594;BME280;43423;46.510;6.686;2022-12-18T05:05:49;97418.19;;;-0.30;84.84
57594;BME280;43423;46.510;6.686;2022-12-18T05:08:15;97427.06;;;-0.29;85.24
57594;BME280;43423;46.510;6.686;2022-12-18T05:10:41;97423.97;;;-0.28;85.64
57594;BME280;43423;46.510;6.686;2022-12-18T05:13:07;97420.91;;;-0.26;85.67
57594;BME280;43423;46.510;6.686;2022-12-18T05:15:33;97435.19;;;-0.22;85.62
57594;BME280;43423;46.510;6.686;2022-12-18T05:17:59;97427.03;;;-0.40;84.80
57594;BME280;43423;46.510;6.686;2022-12-18T05:20:25;97435.56;;;-0.31;85.30
57594;BME280;43423;46.510;6.686;2022-12-18T05:22:51;97435.59;;;-0.23;85.00
57594;BME280;43423;46.510;6.686;2022-12-18T05:25:18;97428.63;;;-0.24;85.18
57594;BME280;43423;46.510;6.686;2022-12-18T05:27:43;97431.75;;;-0.15;85.09
57594;BME280;43423;46.510;6.686;2022-12-18T05:30:09;97439.47;;;-0.14;85.22
57594;BME280;43423;46.510;6.686;2022-12-18T05:32:35;97436.75;;;-0.14;85.30
57594;BME280;43423;46.510;6.686;2022-12-18T05:35:01;97439.47;;;-0.10;85.54
57594;BME280;43423;46.510;6.686;2022-12-18T05:37:26;97442.94;;;-0.10;85.64
57594;BME280;43423;46.510;6.686;2022-12-18T05:39:52;97434.81;;;-0.13;86.02
57594;BME280;43423;46.510;6.686;2022-12-18T05:42:17;97434.44;;;-0.12;86.08
57594;BME280;43423;46.510;6.686;2022-12-18T05:44:44;97441.41;;;-0.07;85.46
57594;BME280;43423;46.510;6.686;2022-12-18T05:47:09;97442.19;;;-0.03;85.04
57594;BME280;43423;46.510;6.686;2022-12-18T05:49:35;97444.47;;;-0.09;84.35
57594;BME280;43423;46.510;6.686;2022-12-18T05:52:01;97451.84;;;0.02;83.96
57594;BME280;43423;46.510;6.686;2022-12-18T05:54:27;97451.06;;;0.05;83.55
57594;BME280;43423;46.510;6.686;2022-12-18T05:56:53;97444.13;;;0.04;83.65
57594;BME280;43423;46.510;6.686;2022-12-18T05:59:19;97459.19;;;0.08;83.56
57594;BME280;43423;46.510;6.686;2022-12-18T06:01:45;97464.59;;;0.15;83.14
57594;BME280;43423;46.510;6.686;2022-12-18T06:04:11;97457.25;;;0.12;83.16
57594;BME280;43423;46.510;6.686;2022-12-18T06:06:37;97466.56;;;0.25;82.42
57594;BME280;43423;46.510;6.686;2022-12-18T06:09:03;97452.63;;;0.20;83.37
57594;BME280;43423;46.510;6.686;2022-12-18T06:11:34;97460.34;;;0.21;83.24
57594;BME280;43423;46.510;6.686;2022-12-18T06:14:00;97454.19;;;0.21;83.69
57594;BME280;43423;46.510;6.686;2022-12-18T06:16:29;97458.44;;;0.25;83.04
57594;BME280;43423;46.510;6.686;2022-12-18T06:18:56;97467.31;;;0.26;83.17
57594;BME280;43423;46.510;6.686;2022-12-18T06:21:22;97463.06;;;0.28;82.98
57594;BME280;43423;46.510;6.686;2022-12-18T06:23:47;97458.81;;;0.31;82.62
57594;BME280;43423;46.510;6.686;2022-12-18T06:26:13;97465.41;;;0.34;82.49
57594;BME280;43423;46.510;6.686;2022-12-18T06:28:40;97470.03;;;0.37;82.42
57594;BME280;43423;46.510;6.686;2022-12-18T06:31:06;97475.06;;;0.27;82.63
57594;BME280;43423;46.510;6.686;2022-12-18T06:33:32;97466.94;;;0.20;82.80
57594;BME280;43423;46.510;6.686;2022-12-18T06:36:02;97489.75;;;0.34;82.93
57594;BME280;43423;46.510;6.686;2022-12-18T06:38:28;97486.63;;;0.32;81.87
57594;BME280;43423;46.510;6.686;2022-12-18T06:40:54;97498.25;;;0.32;82.88
57594;BME280;43423;46.510;6.686;2022-12-18T06:43:20;97488.59;;;0.24;84.04
57594;BME280;43423;46.510;6.686;2022-12-18T06:45:45;97499.00;;;0.25;83.73
57594;BME280;43423;46.510;6.686;2022-12-18T06:48:14;97509.06;;;0.28;83.71
57594;BME280;43423;46.510;6.686;2022-12-18T06:50:42;97509.81;;;0.29;83.18
57594;BME280;43423;46.510;6.686;2022-12-18T06:53:08;97514.47;;;0.28;82.20
57594;BME280;43423;46.510;6.686;2022-12-18T06:55:33;97511.41;;;0.41;82.09
57594;BME280;43423;46.510;6.686;2022-12-18T06:57:59;97512.16;;;0.38;82.05
57594;BME280;43423;46.510;6.686;2022-12-18T07:00:24;97524.91;;;0.37;81.83
57594;BME280;43423;46.510;6.686;2022-12-18T07:02:50;97519.50;;;0.34;82.32
57594;BME280;43423;46.510;6.686;2022-12-18T07:05:15;97526.47;;;0.35;81.71
57594;BME280;43423;46.510;6.686;2022-12-18T07:07:41;97536.50;;;0.45;81.73
57594;BME280;43423;46.510;6.686;2022-12-18T07:10:07;97541.53;;;0.39;81.93
57594;BME280;43423;46.510;6.686;2022-12-18T07:12:33;97534.22;;;0.40;82.02
57594;BME280;43423;46.510;6.686;2022-12-18T07:14:58;97537.69;;;0.44;81.97
57594;BME280;43423;46.510;6.686;2022-12-18T07:17:24;97526.84;;;0.44;82.24
57594;BME280;43423;46.510;6.686;2022-12-18T07:19:49;97549.66;;;0.46;82.21
57594;BME280;43423;46.510;6.686;2022-12-18T07:22:15;97554.28;;;0.46;82.60
57594;BME280;43423;46.510;6.686;2022-12-18T07:24:41;97547.75;;;0.50;83.54
57594;BME280;43423;46.510;6.686;2022-12-18T07:27:06;97553.91;;;0.54;82.44
57594;BME280;43423;46.510;6.686;2022-12-18T07:29:32;97553.94;;;0.58;82.72
57594;BME280;43423;46.510;6.686;2022-12-18T07:31:57;97546.97;;;0.53;83.12
57594;BME280;43423;46.510;6.686;2022-12-18T07:34:23;97561.25;;;0.54;82.61
57594;BME280;43423;46.510;6.686;2022-12-18T07:36:48;97565.50;;;0.55;82.68
57594;BME280;43423;46.510;6.686;2022-12-18T07:39:14;97559.34;;;0.62;83.92
57594;BME280;43423;46.510;6.686;2022-12-18T07:41:40;97555.84;;;0.61;84.03
57594;BME280;43423;46.510;6.686;2022-12-18T07:44:25;97562.44;;;0.67;82.99
57594;BME280;43423;46.510;6.686;2022-12-18T07:46:51;97560.13;;;0.66;83.56
57594;BME280;43423;46.510;6.686;2022-12-18T07:49:16;97572.09;;;0.68;82.46
57594;BME280;43423;46.510;6.686;2022-12-18T07:51:42;97563.63;;;0.73;81.69
57594;BME280;43423;46.510;6.686;2022-12-18T07:54:07;97561.66;;;0.77;81.23
57594;BME280;43423;46.510;6.686;2022-12-18T07:56:33;97568.63;;;0.78;81.40
57594;BME280;43423;46.510;6.686;2022-12-18T07:58:58;97574.81;;;0.82;81.30
57594;BME280;43423;46.510;6.686;2022-12-18T08:01:24;97573.28;;;0.81;81.63
57594;BME280;43423;46.510;6.686;2022-12-18T08:03:50;97575.59;;;0.87;81.47
57594;BME280;43423;46.510;6.686;2022-12-18T08:06:16;97573.28;;;0.89;80.95
57594;BME280;43423;46.510;6.686;2022-12-18T08:08:41;97577.91;;;0.92;81.01
57594;BME280;43423;46.510;6.686;2022-12-18T08:11:07;97572.88;;;0.94;80.21
57594;BME280;43423;46.510;6.686;2022-12-18T08:13:33;97572.13;;;0.90;80.15
57594;BME280;43423;46.510;6.686;2022-12-18T08:16:04;97579.47;;;0.96;80.67
57594;BME280;43423;46.510;6.686;2022-12-18T08:18:29;97576.38;;;0.98;80.41
57594;BME280;43423;46.510;6.686;2022-12-18T08:20:57;97577.53;;;0.97;81.06
57594;BME280;43423;46.510;6.686;2022-12-18T08:23:22;97541.56;;;0.82;80.64
57594;BME280;43423;46.510;6.686;2022-12-18T08:25:48;97569.00;;;1.02;80.94
57594;BME280;43423;46.510;6.686;2022-12-18T08:28:13;97570.56;;;1.03;79.89
57594;BME280;43423;46.510;6.686;2022-12-18T08:30:39;97575.97;;;1.10;81.14
57594;BME280;43423;46.510;6.686;2022-12-18T08:33:05;97571.72;;;1.16;80.41
57594;BME280;43423;46.510;6.686;2022-12-18T08:35:34;97568.63;;;1.14;80.19
57594;BME280;43423;46.510;6.686;2022-12-18T08:38:00;97564.75;;;1.19;80.45
57594;BME280;43423;46.510;6.686;2022-12-18T08:40:26;97552.75;;;1.23;80.72
57594;BME280;43423;46.510;6.686;2022-12-18T08:42:51;97554.28;;;1.31;80.60
57594;BME280;43423;46.510;6.686;2022-12-18T08:45:35;97553.06;;;1.47;79.77
57594;BME280;43423;46.510;6.686;2022-12-18T08:48:01;97555.38;;;1.48;78.71
57594;BME280;43423;46.510;6.686;2022-12-18T08:50:26;97562.34;;;1.49;78.58
57594;BME280;43423;46.510;6.686;2022-12-18T08:52:52;97558.88;;;1.49;78.72
57594;BME280;43423;46.510;6.686;2022-12-18T08:55:18;97561.97;;;1.54;77.87
57594;BME280;43423;46.510;6.686;2022-12-18T08:57:48;97563.13;;;1.50;77.86
57594;BME280;43423;46.510;6.686;2022-12-18T09:00:15;97563.13;;;1.53;78.45
57594;BME280;43423;46.510;6.686;2022-12-18T09:02:40;97561.22;;;1.50;78.64
57594;BME280;43423;46.510;6.686;2022-12-18T09:05:06;97563.13;;;1.53;78.99
57594;BME280;43423;46.510;6.686;2022-12-18T09:07:32;97571.25;;;1.57;78.85
57594;BME280;43423;46.510;6.686;2022-12-18T09:09:58;97571.66;;;1.59;79.50
57594;BME280;43423;46.510;6.686;2022-12-18T09:12:23;97578.97;;;1.62;78.91
57594;BME280;43423;46.510;6.686;2022-12-18T09:14:49;97573.16;;;1.67;79.57
57594;BME280;43423;46.510;6.686;2022-12-18T09:17:14;97568.13;;;1.69;78.61
57594;BME280;43423;46.510;6.686;2022-12-18T09:19:40;97575.03;;;1.81;79.04
57594;BME280;43423;46.510;6.686;2022-12-18T09:22:05;97576.22;;;1.80;77.74
57594;BME280;43423;46.510;6.686;2022-12-18T09:24:32;97583.94;;;1.85;78.38
57594;BME280;43423;46.510;6.686;2022-12-18T09:26:57;97593.59;;;1.89;78.18
57594;BME280;43423;46.510;6.686;2022-12-18T09:29:23;97583.94;;;1.85;77.81
57594;BME280;43423;46.510;6.686;2022-12-18T09:31:48;97585.88;;;1.91;77.82
57594;BME280;43423;46.510;6.686;2022-12-18T09:34:15;97580.75;;;2.04;78.58
57594;BME280;43423;46.510;6.686;2022-12-18T09:36:40;97588.69;;;2.43;76.02
57594;BME280;43423;46.510;6.686;2022-12-18T09:39:06;97579.59;;;2.75;75.85
57594;BME280;43423;46.510;6.686;2022-12-18T09:44:21;97581.59;;;3.16;72.90
57594;BME280;43423;46.510;6.686;2022-12-18T09:47:12;97584.81;;;3.03;71.62
57594;BME280;43423;46.510;6.686;2022-12-18T09:49:45;97587.38;;;2.73;72.15
57594;BME280;43423;46.510;6.686;2022-12-18T09:52:31;97578.91;;;2.60;73.72
57594;BME280;43423;46.510;6.686;2022-12-18T09:55:06;97578.66;;;2.40;74.41
57594;BME280;43423;46.510;6.686;2022-12-18T09:57:41;97586.06;;;2.33;74.64
57594;BME280;43423;46.510;6.686;2022-12-18T10:00:19;97572.94;;;2.24;75.86
57594;BME280;43423;46.510;6.686;2022-12-18T10:02:46;97586.13;;;2.18;75.85
57594;BME280;43423;46.510;6.686;2022-12-18T10:05:17;97576.41;;;2.21;75.99
57594;BME280;43423;46.510;6.686;2022-12-18T10:08:01;97576.03;;;2.19;75.59
57594;BME280;43423;46.510;6.686;2022-12-18T10:10:36;97585.31;;;2.25;75.43
57594;BME280;43423;46.510;6.686;2022-12-18T10:16:22;97577.94;;;2.26;75.08
57594;BME280;43423;46.510;6.686;2022-12-18T10:26:24;97579.25;;;2.66;74.69
57594;BME280;43423;46.510;6.686;2022-12-18T10:28:51;97574.19;;;2.71;74.21
57594;BME280;43423;46.510;6.686;2022-12-18T10:31:22;97572.19;;;2.79;74.79
57594;BME280;43423;46.510;6.686;2022-12-18T10:33:48;97567.22;;;2.67;74.12
57594;BME280;43423;46.510;6.686;2022-12-18T10:36:14;97567.50;;;2.83;73.81
57594;BME280;43423;46.510;6.686;2022-12-18T10:38:40;97564.81;;;2.79;73.14
57594;BME280;43423;46.510;6.686;2022-12-18T10:41:24;97567.94;;;2.78;74.20
57594;BME280;43423;46.510;6.686;2022-12-18T10:44:20;97570.19;;;2.87;73.84
57594;BME280;43423;46.510;6.686;2022-12-18T10:46:48;97571.13;;;2.66;74.44
57594;BME280;43423;46.510;6.686;2022-12-18T10:49:21;97575.75;;;2.69;74.59
57594;BME280;43423;46.510;6.686;2022-12-18T10:51:47;97576.13;;;2.71;74.12
57594;BME280;43423;46.510;6.686;2022-12-18T10:54:16;97569.56;;;2.65;73.89
57594;BME280;43423;46.510;6.686;2022-12-18T10:56:43;97578.19;;;2.52;74.15
57594;BME280;43423;46.510;6.686;2022-12-18T10:59:11;97569.97;;;2.60;74.14
57594;BME280;43423;46.510;6.686;2022-12-18T11:01:54;97581.53;;;2.74;74.55
57594;BME280;43423;46.510;6.686;2022-12-18T11:04:26;97570.56;;;2.89;73.70
57594;BME280;43423;46.510;6.686;2022-12-18T11:09:29;97571.59;;;3.05;72.82
57594;BME280;43423;46.510;6.686;2022-12-18T11:11:59;97561.31;;;3.24;73.27
57594;BME280;43423;46.510;6.686;2022-12-18T11:14:27;97571.09;;;3.18;73.43
57594;BME280;43423;46.510;6.686;2022-12-18T11:16:54;97561.03;;;3.15;73.35
57594;BME280;43423;46.510;6.686;2022-12-18T11:19:39;97567.78;;;2.96;73.77
57594;BME280;43423;46.510;6.686;2022-12-18T11:22:29;97558.63;;;2.79;73.58
57594;BME280;43423;46.510;6.686;2022-12-18T11:25:05;97565.59;;;2.76;74.73
57594;BME280;43423;46.510;6.686;2022-12-18T11:27:32;97571.06;;;2.73;75.02
57594;BME280;43423;46.510;6.686;2022-12-18T11:33:03;97572.56;;;2.81;74.01
57594;BME280;43423;46.510;6.686;2022-12-18T11:35:38;97579.13;;;2.84;74.85
57594;BME280;43423;46.510;6.686;2022-12-18T11:40:38;97565.16;;;2.85;73.77
57594;BME280;43423;46.510;6.686;2022-12-18T11:43:14;97561.91;;;3.04;73.89
57594;BME280;43423;46.510;6.686;2022-12-18T11:45:49;97562.59;;;3.12;73.46
57594;BME280;43423;46.510;6.686;2022-12-18T11:48:27;97551.97;;;3.28;73.65
57594;BME280;43423;46.510;6.686;2022-12-18T11:50:57;97538.03;;;3.23;72.39
57594;BME280;43423;46.510;6.686;2022-12-18T11:53:26;97550.38;;;3.31;71.72
57594;BME280;43423;46.510;6.686;2022-12-18T11:58:44;97542.88;;;3.80;71.05
57594;BME280;43423;46.510;6.686;2022-12-18T12:15:21;97515.31;;;4.62;67.80
57594;BME280;43423;46.510;6.686;2022-12-18T12:18:05;97518.16;;;4.28;68.49
57594;BME280;43423;46.510;6.686;2022-12-18T12:25:52;97511.66;;;4.45;68.99
57594;BME280;43423;46.510;6.686;2022-12-18T12:31:17;97488.41;;;4.88;67.22
57594;BME280;43423;46.510;6.686;2022-12-18T12:39:14;97490.44;;;5.07;66.42
57594;BME280;43423;46.510;6.686;2022-12-18T12:41:42;97490.63;;;5.40;66.10
57594;BME280;43423;46.510;6.686;2022-12-18T12:44:33;97482.94;;;5.11;65.42
57594;BME280;43423;46.510;6.686;2022-12-18T12:47:28;97482.22;;;5.30;65.06
57594;BME280;43423;46.510;6.686;2022-12-18T12:49:57;97480.75;;;5.46;65.54
57594;BME280;43423;46.510;6.686;2022-12-18T12:52:35;97476.75;;;5.50;65.06
57594;BME280;43423;46.510;6.686;2022-12-18T12:55:04;97477.09;;;5.52;65.25
57594;BME280;43423;46.510;6.686;2022-12-18T12:57:42;97480.13;;;5.58;64.27
57594;BME280;43423;46.510;6.686;2022-12-18T13:00:17;97480.47;;;5.60;64.98
57594;BME280;43423;46.510;6.686;2022-12-18T13:02:59;97477.19;;;5.49;64.83
57594;BME280;43423;46.510;6.686;2022-12-18T13:05:45;97479.72;;;5.40;65.32
57594;BME280;43423;46.510;6.686;2022-12-18T13:08:28;97474.94;;;5.44;64.31
57594;BME280;43423;46.510;6.686;2022-12-18T13:10:56;97450.44;;;5.60;65.48
57594;BME280;43423;46.510;6.686;2022-12-18T13:13:53;97475.44;;;5.78;65.07
57594;BME280;43423;46.510;6.686;2022-12-18T13:16:21;97456.53;;;5.68;64.08
57594;BME280;43423;46.510;6.686;2022-12-18T13:18:51;97467.06;;;5.69;63.48
57594;BME280;43423;46.510;6.686;2022-12-18T13:21:30;97458.28;;;5.58;64.37
57594;BME280;43423;46.510;6.686;2022-12-18T13:23:57;97459.78;;;5.23;65.18
57594;BME280;43423;46.510;6.686;2022-12-18T13:26:39;97474.94;;;5.44;65.17
57594;BME280;43423;46.510;6.686;2022-12-18T13:29:05;97467.44;;;5.68;64.79
57594;BME280;43423;46.510;6.686;2022-12-18T13:36:47;97441.34;;;5.86;63.87
57594;BME280;43423;46.510;6.686;2022-12-18T13:41:54;97354.31;;;5.36;65.32
57594;BME280;43423;46.510;6.686;2022-12-18T13:44:59;97441.06;;;5.81;64.58
57594;BME280;43423;46.510;6.686;2022-12-18T13:47:32;97452.66;;;6.05;65.26
57594;BME280;43423;46.510;6.686;2022-12-18T13:49:59;97455.66;;;6.10;63.80
57594;BME280;43423;46.510;6.686;2022-12-18T13:52:28;97435.06;;;5.70;65.05
57594;BME280;43423;46.510;6.686;2022-12-18T13:55:00;97435.13;;;5.86;65.61
57594;BME280;43423;46.510;6.686;2022-12-18T13:57:35;97452.66;;;6.05;64.42
57594;BME280;43423;46.510;6.686;2022-12-18T14:00:33;97453.09;;;5.83;65.13
57594;BME280;43423;46.510;6.686;2022-12-18T14:02:59;97450.31;;;5.67;65.48
57594;BME280;43423;46.510;6.686;2022-12-18T14:05:28;97447.59;;;5.47;65.47
57594;BME280;43423;46.510;6.686;2022-12-18T14:08:05;97444.44;;;5.49;66.23
57594;BME280;43423;46.510;6.686;2022-12-18T14:10:33;97443.31;;;5.26;66.88
57594;BME280;43423;46.510;6.686;2022-12-18T14:13:06;97442.47;;;5.10;66.83
57594;BME280;43423;46.510;6.686;2022-12-18T14:15:34;97451.16;;;5.24;67.46
57594;BME280;43423;46.510;6.686;2022-12-18T14:18:17;97453.31;;;5.13;67.37
57594;BME280;43423;46.510;6.686;2022-12-18T14:20:45;97449.03;;;5.12;68.04
57594;BME280;43423;46.510;6.686;2022-12-18T14:25:55;97454.34;;;4.99;68.54
57594;BME280;43423;46.510;6.686;2022-12-18T14:28:21;97446.94;;;5.00;68.16
57594;BME280;43423;46.510;6.686;2022-12-18T14:30:50;97458.16;;;5.25;67.44
57594;BME280;43423;46.510;6.686;2022-12-18T14:33:21;97458.28;;;5.18;66.92
57594;BME280;43423;46.510;6.686;2022-12-18T14:36:13;97470.28;;;5.01;67.92
57594;BME280;43423;46.510;6.686;2022-12-18T14:38:40;97464.97;;;4.70;68.96
57594;BME280;43423;46.510;6.686;2022-12-18T14:41:10;97461.59;;;4.63;68.99
57594;BME280;43423;46.510;6.686;2022-12-18T14:43:38;97460.59;;;4.53;69.60
57594;BME280;43423;46.510;6.686;2022-12-18T14:46:06;97463.31;;;4.53;71.03